sensor_id;sensor_type;location;lat;lon;timestamp;P1;durP1;ratioP1;P2;durP2;ratioP2
55776;SDS011;54079;44.540;18.784;2024-03-08T00:01:43;26.73;;;20.67;;
55776;SDS011;54079;44.540;18.784;2024-03-08T00:04:10;25.65;;;21.10;;
55776;SDS011;54079;44.540;18.784;2024-03-08T00:06:36;25.40;;;18.75;;
55776;SDS011;54079;44.540;18.784;2024-03-08T00:09:02;23.27;;;18.55;;
55776;SDS011;54079;44.540;18.784;2024-03-08T00:11:28;23.40;;;18.40;;
55776;SDS011;54079;44.540;18.784;2024-03-08T00:13:54;26.08;;;20.92;;
55776;SDS011;54079;44.540;18.784;2024-03-08T00:16:20;25.35;;;20.00;;
55776;SDS011;54079;44.540;18.784;2024-03-08T00:18:48;28.45;;;21.30;;
55776;SDS011;54079;44.540;18.784;2024-03-08T00:21:14;23.70;;;18.25;;
55776;SDS011;54079;44.540;18.784;2024-03-08T00:23:40;25.02;;;20.00;;
55776;SDS011;54079;44.540;18.784;2024-03-08T00:26:06;26.08;;;20.15;;
55776;SDS011;54079;44.540;18.784;2024-03-08T00:28:32;24.98;;;19.98;;
55776;SDS011;54079;44.540;18.784;2024-03-08T00:30:59;25.38;;;17.80;;
55776;SDS011;54079;44.540;18.784;2024-03-08T00:33:25;26.73;;;18.92;;
55776;SDS011;54079;44.540;18.784;2024-03-08T00:35:53;25.05;;;19.10;;
55776;SDS011;54079;44.540;18.784;2024-03-08T00:38:19;23.60;;;17.88;;
55776;SDS011;54079;44.540;18.784;2024-03-08T00:40:45;23.52;;;18.02;;
55776;SDS011;54079;44.540;18.784;2024-03-08T00:43:11;25.30;;;20.85;;
55776;SDS011;54079;44.540;18.784;2024-03-08T00:45:37;31.48;;;23.30;;
55776;SDS011;54079;44.540;18.784;2024-03-08T00:48:03;27.15;;;21.95;;
55776;SDS011;54079;44.540;18.784;2024-03-08T00:50:30;26.15;;;19.08;;
55776;SDS011;54079;44.540;18.784;2024-03-08T00:52:56;23.98;;;18.63;;
55776;SDS011;54079;44.540;18.784;2024-03-08T00:55:22;25.55;;;18.80;;
55776;SDS011;54079;44.540;18.784;2024-03-08T00:57:48;26.85;;;20.17;;
55776;SDS011;54079;44.540;18.784;2024-03-08T01:00:14;25.98;;;19.65;;
55776;SDS011;54079;44.540;18.784;2024-03-08T01:02:40;25.45;;;20.58;;
55776;SDS011;54079;44.540;18.784;2024-03-08T01:05:06;30.75;;;21.23;;
55776;SDS011;54079;44.540;18.784;2024-03-08T01:07:33;27.67;;;19.75;;
55776;SDS011;54079;44.540;18.784;2024-03-08T01:10:01;24.50;;;19.13;;
55776;SDS011;54079;44.540;18.784;2024-03-08T01:12:28;30.80;;;22.58;;
55776;SDS011;54079;44.540;18.784;2024-03-08T01:14:55;33.50;;;24.20;;
55776;SDS011;54079;44.540;18.784;2024-03-08T01:17:21;32.53;;;22.65;;
55776;SDS011;54079;44.540;18.784;2024-03-08T01:19:47;29.20;;;21.52;;
55776;SDS011;54079;44.540;18.784;2024-03-08T01:38:16;27.92;;;21.15;;
55776;SDS011;54079;44.540;18.784;2024-03-08T01:40:43;29.55;;;22.88;;
55776;SDS011;54079;44.540;18.784;2024-03-08T01:43:19;28.95;;;20.35;;
55776;SDS011;54079;44.540;18.784;2024-03-08T01:45:46;32.80;;;22.90;;
55776;SDS011;54079;44.540;18.784;2024-03-08T01:48:13;30.33;;;21.95;;
55776;SDS011;54079;44.540;18.784;2024-03-08T01:50:40;28.27;;;20.83;;
55776;SDS011;54079;44.540;18.784;2024-03-08T01:53:07;33.55;;;23.88;;
55776;SDS011;54079;44.540;18.784;2024-03-08T01:55:35;34.85;;;24.15;;
55776;SDS011;54079;44.540;18.784;2024-03-08T01:58:03;30.42;;;22.55;;
55776;SDS011;54079;44.540;18.784;2024-03-08T02:00:30;32.05;;;22.58;;
55776;SDS011;54079;44.540;18.784;2024-03-08T02:02:58;27.45;;;21.15;;
55776;SDS011;54079;44.540;18.784;2024-03-08T02:05:25;31.27;;;24.63;;
55776;SDS011;54079;44.540;18.784;2024-03-08T02:07:51;30.83;;;23.10;;
55776;SDS011;54079;44.540;18.784;2024-03-08T02:10:17;30.13;;;23.10;;
55776;SDS011;54079;44.540;18.784;2024-03-08T02:12:43;33.78;;;23.60;;
55776;SDS011;54079;44.540;18.784;2024-03-08T02:15:11;36.83;;;25.45;;
55776;SDS011;54079;44.540;18.784;2024-03-08T02:17:37;31.60;;;23.52;;
55776;SDS011;54079;44.540;18.784;2024-03-08T02:20:04;31.90;;;22.23;;
55776;SDS011;54079;44.540;18.784;2024-03-08T02:22:31;31.02;;;23.25;;
55776;SDS011;54079;44.540;18.784;2024-03-08T02:24:58;36.25;;;24.98;;
55776;SDS011;54079;44.540;18.784;2024-03-08T02:27:26;38.83;;;28.33;;
55776;SDS011;54079;44.540;18.784;2024-03-08T02:29:56;33.63;;;25.17;;
55776;SDS011;54079;44.540;18.784;2024-03-08T02:32:23;33.70;;;25.60;;
55776;SDS011;54079;44.540;18.784;2024-03-08T02:34:49;40.28;;;28.30;;
55776;SDS011;54079;44.540;18.784;2024-03-08T02:37:18;39.85;;;27.75;;
55776;SDS011;54079;44.540;18.784;2024-03-08T02:39:44;40.65;;;28.38;;
55776;SDS011;54079;44.540;18.784;2024-03-08T02:42:10;39.67;;;25.63;;
55776;SDS011;54079;44.540;18.784;2024-03-08T02:44:36;37.30;;;25.92;;
55776;SDS011;54079;44.540;18.784;2024-03-08T02:47:02;31.25;;;22.02;;
55776;SDS011;54079;44.540;18.784;2024-03-08T02:49:28;30.17;;;22.58;;
55776;SDS011;54079;44.540;18.784;2024-03-08T02:51:54;26.35;;;19.75;;
55776;SDS011;54079;44.540;18.784;2024-03-08T02:54:22;34.60;;;23.25;;
55776;SDS011;54079;44.540;18.784;2024-03-08T02:56:49;30.25;;;21.88;;
55776;SDS011;54079;44.540;18.784;2024-03-08T02:59:17;31.88;;;23.48;;
55776;SDS011;54079;44.540;18.784;2024-03-08T03:01:44;35.33;;;24.15;;
55776;SDS011;54079;44.540;18.784;2024-03-08T03:04:10;32.70;;;23.02;;
55776;SDS011;54079;44.540;18.784;2024-03-08T03:06:36;35.40;;;25.75;;
55776;SDS011;54079;44.540;18.784;2024-03-08T03:09:02;35.42;;;23.13;;
55776;SDS011;54079;44.540;18.784;2024-03-08T03:11:31;38.50;;;24.38;;
55776;SDS011;54079;44.540;18.784;2024-03-08T03:13:57;33.45;;;24.92;;
55776;SDS011;54079;44.540;18.784;2024-03-08T03:16:23;33.80;;;24.90;;
55776;SDS011;54079;44.540;18.784;2024-03-08T03:18:49;31.77;;;23.83;;
55776;SDS011;54079;44.540;18.784;2024-03-08T03:21:15;36.58;;;25.88;;
55776;SDS011;54079;44.540;18.784;2024-03-08T03:23:42;34.05;;;23.98;;
55776;SDS011;54079;44.540;18.784;2024-03-08T03:26:08;35.58;;;25.65;;
55776;SDS011;54079;44.540;18.784;2024-03-08T03:28:38;35.13;;;25.23;;
55776;SDS011;54079;44.540;18.784;2024-03-08T03:31:07;40.95;;;28.33;;
55776;SDS011;54079;44.540;18.784;2024-03-08T03:33:39;40.45;;;29.25;;
55776;SDS011;54079;44.540;18.784;2024-03-08T03:36:05;34.60;;;24.63;;
55776;SDS011;54079;44.540;18.784;2024-03-08T03:38:33;31.88;;;23.38;;
55776;SDS011;54079;44.540;18.784;2024-03-08T03:41:00;30.83;;;21.38;;
55776;SDS011;54079;44.540;18.784;2024-03-08T03:43:35;34.45;;;22.85;;
55776;SDS011;54079;44.540;18.784;2024-03-08T03:46:07;35.15;;;23.38;;
55776;SDS011;54079;44.540;18.784;2024-03-08T03:48:35;31.08;;;21.40;;
55776;SDS011;54079;44.540;18.784;2024-03-08T03:51:01;32.72;;;21.30;;
55776;SDS011;54079;44.540;18.784;2024-03-08T03:53:27;29.60;;;21.33;;
55776;SDS011;54079;44.540;18.784;2024-03-08T03:55:53;31.25;;;22.63;;
55776;SDS011;54079;44.540;18.784;2024-03-08T03:58:19;29.40;;;21.45;;
55776;SDS011;54079;44.540;18.784;2024-03-08T04:00:47;30.40;;;22.40;;
55776;SDS011;54079;44.540;18.784;2024-03-08T04:03:14;24.00;;;19.60;;
55776;SDS011;54079;44.540;18.784;2024-03-08T04:05:42;20.02;;;16.90;;
55776;SDS011;54079;44.540;18.784;2024-03-08T04:08:08;19.55;;;14.52;;
55776;SDS011;54079;44.540;18.784;2024-03-08T04:10:34;20.33;;;16.70;;
55776;SDS011;54079;44.540;18.784;2024-03-08T04:13:00;18.77;;;15.98;;
55776;SDS011;54079;44.540;18.784;2024-03-08T04:15:26;18.98;;;15.43;;
55776;SDS011;54079;44.540;18.784;2024-03-08T04:17:51;16.90;;;13.50;;
55776;SDS011;54079;44.540;18.784;2024-03-08T04:20:17;19.02;;;16.73;;
55776;SDS011;54079;44.540;18.784;2024-03-08T04:22:43;19.52;;;15.00;;
55776;SDS011;54079;44.540;18.784;2024-03-08T04:25:09;13.45;;;10.27;;
55776;SDS011;54079;44.540;18.784;2024-03-08T04:27:35;20.42;;;15.77;;
55776;SDS011;54079;44.540;18.784;2024-03-08T04:30:02;21.40;;;15.80;;
55776;SDS011;54079;44.540;18.784;2024-03-08T04:32:28;16.17;;;13.40;;
55776;SDS011;54079;44.540;18.784;2024-03-08T04:34:57;16.33;;;13.27;;
55776;SDS011;54079;44.540;18.784;2024-03-08T04:37:23;14.32;;;12.63;;
55776;SDS011;54079;44.540;18.784;2024-03-08T04:39:50;12.27;;;11.10;;
55776;SDS011;54079;44.540;18.784;2024-03-08T04:42:16;13.13;;;11.25;;
55776;SDS011;54079;44.540;18.784;2024-03-08T04:44:43;16.45;;;11.95;;
55776;SDS011;54079;44.540;18.784;2024-03-08T04:47:09;22.50;;;15.32;;
55776;SDS011;54079;44.540;18.784;2024-03-08T04:49:36;19.17;;;13.50;;
55776;SDS011;54079;44.540;18.784;2024-03-08T04:52:02;12.20;;;10.20;;
55776;SDS011;54079;44.540;18.784;2024-03-08T04:54:29;17.00;;;12.50;;
55776;SDS011;54079;44.540;18.784;2024-03-08T04:56:55;18.60;;;14.38;;
55776;SDS011;54079;44.540;18.784;2024-03-08T04:59:21;22.38;;;16.55;;
55776;SDS011;54079;44.540;18.784;2024-03-08T05:01:47;24.48;;;16.75;;
55776;SDS011;54079;44.540;18.784;2024-03-08T05:04:13;24.40;;;17.42;;
55776;SDS011;54079;44.540;18.784;2024-03-08T05:06:40;22.50;;;16.60;;
55776;SDS011;54079;44.540;18.784;2024-03-08T05:09:06;20.55;;;14.50;;
55776;SDS011;54079;44.540;18.784;2024-03-08T05:11:45;16.27;;;14.48;;
55776;SDS011;54079;44.540;18.784;2024-03-08T05:14:15;17.70;;;13.32;;
55776;SDS011;54079;44.540;18.784;2024-03-08T05:16:46;17.25;;;12.90;;
55776;SDS011;54079;44.540;18.784;2024-03-08T05:19:15;20.45;;;15.32;;
55776;SDS011;54079;44.540;18.784;2024-03-08T05:21:48;28.67;;;19.15;;
55776;SDS011;54079;44.540;18.784;2024-03-08T05:24:15;21.42;;;15.57;;
55776;SDS011;54079;44.540;18.784;2024-03-08T05:26:42;22.88;;;17.20;;
55776;SDS011;54079;44.540;18.784;2024-03-08T05:29:08;27.73;;;19.77;;
55776;SDS011;54079;44.540;18.784;2024-03-08T05:31:47;23.75;;;16.50;;
55776;SDS011;54079;44.540;18.784;2024-03-08T05:34:15;25.40;;;18.02;;
55776;SDS011;54079;44.540;18.784;2024-03-08T05:36:41;24.85;;;18.55;;
55776;SDS011;54079;44.540;18.784;2024-03-08T05:39:11;24.60;;;18.05;;
55776;SDS011;54079;44.540;18.784;2024-03-08T05:41:38;25.02;;;18.20;;
55776;SDS011;54079;44.540;18.784;2024-03-08T05:44:05;18.60;;;13.88;;
55776;SDS011;54079;44.540;18.784;2024-03-08T05:46:31;16.40;;;12.70;;
55776;SDS011;54079;44.540;18.784;2024-03-08T05:48:57;16.58;;;13.55;;
55776;SDS011;54079;44.540;18.784;2024-03-08T05:51:30;18.60;;;14.60;;
55776;SDS011;54079;44.540;18.784;2024-03-08T05:54:01;19.15;;;14.68;;
55776;SDS011;54079;44.540;18.784;2024-03-08T05:56:31;18.85;;;15.27;;
55776;SDS011;54079;44.540;18.784;2024-03-08T05:58:58;18.80;;;14.27;;
55776;SDS011;54079;44.540;18.784;2024-03-08T06:01:24;18.25;;;15.55;;
55776;SDS011;54079;44.540;18.784;2024-03-08T06:03:52;19.35;;;16.75;;
55776;SDS011;54079;44.540;18.784;2024-03-08T06:06:20;23.45;;;18.75;;
55776;SDS011;54079;44.540;18.784;2024-03-08T06:08:47;25.15;;;19.13;;
55776;SDS011;54079;44.540;18.784;2024-03-08T06:11:17;22.70;;;17.98;;
55776;SDS011;54079;44.540;18.784;2024-03-08T06:13:44;26.15;;;20.60;;
55776;SDS011;54079;44.540;18.784;2024-03-08T06:16:10;30.08;;;21.38;;
55776;SDS011;54079;44.540;18.784;2024-03-08T06:18:36;27.95;;;20.20;;
55776;SDS011;54079;44.540;18.784;2024-03-08T06:21:04;33.05;;;24.90;;
55776;SDS011;54079;44.540;18.784;2024-03-08T06:23:34;30.05;;;22.38;;
55776;SDS011;54079;44.540;18.784;2024-03-08T06:26:03;34.08;;;25.60;;
55776;SDS011;54079;44.540;18.784;2024-03-08T06:28:30;30.95;;;22.30;;
55776;SDS011;54079;44.540;18.784;2024-03-08T06:30:58;29.52;;;22.90;;
55776;SDS011;54079;44.540;18.784;2024-03-08T06:33:24;32.00;;;23.88;;
55776;SDS011;54079;44.540;18.784;2024-03-08T06:35:53;31.00;;;22.73;;
55776;SDS011;54079;44.540;18.784;2024-03-08T06:38:22;30.23;;;21.95;;
55776;SDS011;54079;44.540;18.784;2024-03-08T06:40:49;41.20;;;28.48;;
55776;SDS011;54079;44.540;18.784;2024-03-08T06:43:16;32.30;;;22.95;;
55776;SDS011;54079;44.540;18.784;2024-03-08T06:45:43;38.22;;;28.17;;
55776;SDS011;54079;44.540;18.784;2024-03-08T06:48:16;32.95;;;25.80;;
55776;SDS011;54079;44.540;18.784;2024-03-08T06:50:45;32.15;;;23.75;;
55776;SDS011;54079;44.540;18.784;2024-03-08T06:53:12;28.15;;;21.92;;
55776;SDS011;54079;44.540;18.784;2024-03-08T06:55:39;31.25;;;23.52;;
55776;SDS011;54079;44.540;18.784;2024-03-08T06:58:05;32.17;;;23.65;;
55776;SDS011;54079;44.540;18.784;2024-03-08T07:00:35;27.45;;;22.20;;
55776;SDS011;54079;44.540;18.784;2024-03-08T07:03:02;22.45;;;18.55;;
55776;SDS011;54079;44.540;18.784;2024-03-08T07:05:29;28.42;;;21.35;;
55776;SDS011;54079;44.540;18.784;2024-03-08T07:07:55;28.80;;;22.15;;
55776;SDS011;54079;44.540;18.784;2024-03-08T07:10:24;28.80;;;21.50;;
55776;SDS011;54079;44.540;18.784;2024-03-08T07:12:53;31.30;;;23.33;;
55776;SDS011;54079;44.540;18.784;2024-03-08T07:15:19;30.85;;;22.88;;
55776;SDS011;54079;44.540;18.784;2024-03-08T07:17:46;34.35;;;23.52;;
55776;SDS011;54079;44.540;18.784;2024-03-08T07:20:15;28.05;;;21.52;;
55776;SDS011;54079;44.540;18.784;2024-03-08T07:22:44;27.48;;;23.45;;
55776;SDS011;54079;44.540;18.784;2024-03-08T07:25:12;36.72;;;26.05;;
55776;SDS011;54079;44.540;18.784;2024-03-08T07:27:52;38.90;;;27.48;;
55776;SDS011;54079;44.540;18.784;2024-03-08T07:30:26;35.97;;;26.92;;
55776;SDS011;54079;44.540;18.784;2024-03-08T07:33:10;33.47;;;25.45;;
55776;SDS011;54079;44.540;18.784;2024-03-08T07:35:37;44.97;;;31.27;;
55776;SDS011;54079;44.540;18.784;2024-03-08T07:38:07;42.55;;;30.50;;
55776;SDS011;54079;44.540;18.784;2024-03-08T07:40:35;45.30;;;33.00;;
55776;SDS011;54079;44.540;18.784;2024-03-08T07:43:04;34.92;;;24.15;;
55776;SDS011;54079;44.540;18.784;2024-03-08T07:45:30;25.80;;;19.80;;
55776;SDS011;54079;44.540;18.784;2024-03-08T07:47:56;22.33;;;16.90;;
55776;SDS011;54079;44.540;18.784;2024-03-08T07:50:22;35.92;;;24.90;;
55776;SDS011;54079;44.540;18.784;2024-03-08T07:52:48;38.05;;;27.35;;
55776;SDS011;54079;44.540;18.784;2024-03-08T07:55:14;42.78;;;29.35;;
55776;SDS011;54079;44.540;18.784;2024-03-08T07:57:40;36.63;;;25.92;;
55776;SDS011;54079;44.540;18.784;2024-03-08T08:00:07;34.58;;;26.48;;
55776;SDS011;54079;44.540;18.784;2024-03-08T08:02:35;31.05;;;24.38;;
55776;SDS011;54079;44.540;18.784;2024-03-08T08:05:02;33.33;;;24.02;;
55776;SDS011;54079;44.540;18.784;2024-03-08T08:07:28;41.88;;;31.38;;
55776;SDS011;54079;44.540;18.784;2024-03-08T08:09:54;38.58;;;28.38;;
55776;SDS011;54079;44.540;18.784;2024-03-08T08:12:20;35.67;;;26.02;;
55776;SDS011;54079;44.540;18.784;2024-03-08T08:14:46;30.83;;;23.02;;
55776;SDS011;54079;44.540;18.784;2024-03-08T08:17:12;30.38;;;22.10;;
55776;SDS011;54079;44.540;18.784;2024-03-08T08:19:40;31.45;;;22.60;;
55776;SDS011;54079;44.540;18.784;2024-03-08T08:22:06;24.23;;;19.17;;
55776;SDS011;54079;44.540;18.784;2024-03-08T08:24:34;24.80;;;20.48;;
55776;SDS011;54079;44.540;18.784;2024-03-08T08:27:02;21.65;;;16.15;;
55776;SDS011;54079;44.540;18.784;2024-03-08T08:29:28;19.00;;;15.43;;
55776;SDS011;54079;44.540;18.784;2024-03-08T08:31:57;25.75;;;18.85;;
55776;SDS011;54079;44.540;18.784;2024-03-08T08:34:24;19.27;;;14.30;;
55776;SDS011;54079;44.540;18.784;2024-03-08T08:36:51;19.25;;;14.77;;
55776;SDS011;54079;44.540;18.784;2024-03-08T08:39:18;16.75;;;12.38;;
55776;SDS011;54079;44.540;18.784;2024-03-08T08:41:44;20.83;;;15.70;;
55776;SDS011;54079;44.540;18.784;2024-03-08T08:44:10;13.82;;;10.95;;
55776;SDS011;54079;44.540;18.784;2024-03-08T08:46:37;13.73;;;9.75;;
55776;SDS011;54079;44.540;18.784;2024-03-08T08:49:04;18.92;;;15.55;;
55776;SDS011;54079;44.540;18.784;2024-03-08T08:51:31;21.80;;;15.45;;
55776;SDS011;54079;44.540;18.784;2024-03-08T08:53:58;26.58;;;19.58;;
55776;SDS011;54079;44.540;18.784;2024-03-08T08:56:25;16.20;;;13.18;;
55776;SDS011;54079;44.540;18.784;2024-03-08T08:58:51;15.43;;;11.98;;
55776;SDS011;54079;44.540;18.784;2024-03-08T09:01:20;24.25;;;17.65;;
55776;SDS011;54079;44.540;18.784;2024-03-08T09:03:46;24.27;;;17.73;;
55776;SDS011;54079;44.540;18.784;2024-03-08T09:06:12;19.73;;;15.75;;
55776;SDS011;54079;44.540;18.784;2024-03-08T09:08:39;21.77;;;15.80;;
55776;SDS011;54079;44.540;18.784;2024-03-08T09:11:05;21.92;;;17.58;;
55776;SDS011;54079;44.540;18.784;2024-03-08T09:13:31;15.23;;;12.13;;
55776;SDS011;54079;44.540;18.784;2024-03-08T09:15:59;27.23;;;20.10;;
55776;SDS011;54079;44.540;18.784;2024-03-08T09:18:25;22.85;;;17.13;;
55776;SDS011;54079;44.540;18.784;2024-03-08T09:20:51;27.75;;;20.25;;
55776;SDS011;54079;44.540;18.784;2024-03-08T09:23:21;16.02;;;12.40;;
55776;SDS011;54079;44.540;18.784;2024-03-08T09:25:47;18.80;;;14.85;;
55776;SDS011;54079;44.540;18.784;2024-03-08T09:28:14;15.88;;;12.30;;
55776;SDS011;54079;44.540;18.784;2024-03-08T09:30:41;17.48;;;13.48;;
55776;SDS011;54079;44.540;18.784;2024-03-08T09:33:08;22.13;;;16.63;;
55776;SDS011;54079;44.540;18.784;2024-03-08T09:35:34;19.00;;;15.40;;
55776;SDS011;54079;44.540;18.784;2024-03-08T09:38:00;14.02;;;11.80;;
55776;SDS011;54079;44.540;18.784;2024-03-08T09:40:26;13.95;;;11.25;;
55776;SDS011;54079;44.540;18.784;2024-03-08T09:42:52;15.45;;;11.90;;
55776;SDS011;54079;44.540;18.784;2024-03-08T09:45:20;12.43;;;10.30;;
55776;SDS011;54079;44.540;18.784;2024-03-08T09:47:50;26.10;;;19.77;;
55776;SDS011;54079;44.540;18.784;2024-03-08T09:50:16;20.33;;;14.55;;
55776;SDS011;54079;44.540;18.784;2024-03-08T09:52:43;15.50;;;12.32;;
55776;SDS011;54079;44.540;18.784;2024-03-08T09:55:11;20.25;;;16.10;;
55776;SDS011;54079;44.540;18.784;2024-03-08T09:57:38;35.10;;;25.25;;
55776;SDS011;54079;44.540;18.784;2024-03-08T10:00:05;17.15;;;14.95;;
55776;SDS011;54079;44.540;18.784;2024-03-08T10:02:48;13.98;;;12.02;;
55776;SDS011;54079;44.540;18.784;2024-03-08T10:05:17;14.55;;;11.73;;
55776;SDS011;54079;44.540;18.784;2024-03-08T10:07:43;13.80;;;10.65;;
55776;SDS011;54079;44.540;18.784;2024-03-08T10:10:09;15.95;;;12.82;;
55776;SDS011;54079;44.540;18.784;2024-03-08T10:12:37;21.63;;;16.75;;
55776;SDS011;54079;44.540;18.784;2024-03-08T10:15:07;22.40;;;15.60;;
55776;SDS011;54079;44.540;18.784;2024-03-08T10:17:37;36.17;;;26.38;;
55776;SDS011;54079;44.540;18.784;2024-03-08T10:20:13;13.80;;;12.25;;
55776;SDS011;54079;44.540;18.784;2024-03-08T10:22:40;23.63;;;19.30;;
55776;SDS011;54079;44.540;18.784;2024-03-08T10:25:09;15.50;;;13.75;;
55776;SDS011;54079;44.540;18.784;2024-03-08T10:27:39;24.38;;;17.42;;
55776;SDS011;54079;44.540;18.784;2024-03-08T10:30:06;30.17;;;22.50;;
55776;SDS011;54079;44.540;18.784;2024-03-08T10:32:45;51.92;;;38.22;;
55776;SDS011;54079;44.540;18.784;2024-03-08T10:35:11;33.72;;;25.83;;
55776;SDS011;54079;44.540;18.784;2024-03-08T10:37:44;22.55;;;17.63;;
55776;SDS011;54079;44.540;18.784;2024-03-08T10:40:20;20.50;;;16.27;;
55776;SDS011;54079;44.540;18.784;2024-03-08T10:42:58;23.70;;;18.50;;
55776;SDS011;54079;44.540;18.784;2024-03-08T10:45:31;21.38;;;17.02;;
55776;SDS011;54079;44.540;18.784;2024-03-08T10:50:48;18.98;;;14.48;;
55776;SDS011;54079;44.540;18.784;2024-03-08T10:53:17;16.20;;;13.68;;
55776;SDS011;54079;44.540;18.784;2024-03-08T10:55:47;12.00;;;10.45;;
55776;SDS011;54079;44.540;18.784;2024-03-08T10:58:14;19.70;;;15.80;;
55776;SDS011;54079;44.540;18.784;2024-03-08T11:00:42;12.98;;;10.27;;
55776;SDS011;54079;44.540;18.784;2024-03-08T11:03:14;42.70;;;32.17;;
55776;SDS011;54079;44.540;18.784;2024-03-08T11:06:07;12.88;;;11.50;;
55776;SDS011;54079;44.540;18.784;2024-03-08T11:08:37;16.38;;;14.20;;
55776;SDS011;54079;44.540;18.784;2024-03-08T11:11:04;20.75;;;15.63;;
55776;SDS011;54079;44.540;18.784;2024-03-08T11:13:34;49.90;;;37.15;;
55776;SDS011;54079;44.540;18.784;2024-03-08T11:16:51;29.42;;;23.95;;
55776;SDS011;54079;44.540;18.784;2024-03-08T11:19:01;15.88;;;14.18;;
55776;SDS011;54079;44.540;18.784;2024-03-08T11:21:36;37.65;;;27.90;;
55776;SDS011;54079;44.540;18.784;2024-03-08T11:24:12;35.22;;;26.77;;
55776;SDS011;54079;44.540;18.784;2024-03-08T11:26:42;15.40;;;13.80;;
55776;SDS011;54079;44.540;18.784;2024-03-08T11:32:05;14.27;;;11.50;;
55776;SDS011;54079;44.540;18.784;2024-03-08T11:34:42;16.23;;;12.73;;
55776;SDS011;54079;44.540;18.784;2024-03-08T11:37:16;11.48;;;10.35;;
55776;SDS011;54079;44.540;18.784;2024-03-08T11:39:55;8.25;;;7.40;;
55776;SDS011;54079;44.540;18.784;2024-03-08T11:42:24;38.63;;;29.45;;
55776;SDS011;54079;44.540;18.784;2024-03-08T11:44:53;22.60;;;17.88;;
55776;SDS011;54079;44.540;18.784;2024-03-08T11:47:20;23.73;;;16.15;;
55776;SDS011;54079;44.540;18.784;2024-03-08T11:49:46;12.73;;;10.95;;
55776;SDS011;54079;44.540;18.784;2024-03-08T11:52:17;10.25;;;9.25;;
55776;SDS011;54079;44.540;18.784;2024-03-08T11:54:53;9.90;;;8.90;;
55776;SDS011;54079;44.540;18.784;2024-03-08T11:57:25;26.08;;;19.30;;
55776;SDS011;54079;44.540;18.784;2024-03-08T11:59:53;42.83;;;30.65;;
55776;SDS011;54079;44.540;18.784;2024-03-08T12:02:24;10.82;;;8.95;;
55776;SDS011;54079;44.540;18.784;2024-03-08T12:04:59;9.45;;;8.48;;
55776;SDS011;54079;44.540;18.784;2024-03-08T12:07:28;8.20;;;7.30;;
55776;SDS011;54079;44.540;18.784;2024-03-08T12:12:50;9.18;;;7.32;;
55776;SDS011;54079;44.540;18.784;2024-03-08T12:15:24;30.13;;;22.98;;
55776;SDS011;54079;44.540;18.784;2024-03-08T12:17:52;22.65;;;18.23;;
55776;SDS011;54079;44.540;18.784;2024-03-08T12:20:25;19.60;;;16.63;;
55776;SDS011;54079;44.540;18.784;2024-03-08T12:22:54;21.25;;;15.57;;
55776;SDS011;54079;44.540;18.784;2024-03-08T12:25:42;15.20;;;13.18;;
55776;SDS011;54079;44.540;18.784;2024-03-08T12:28:11;10.30;;;9.25;;
55776;SDS011;54079;44.540;18.784;2024-03-08T12:30:50;12.27;;;10.30;;
55776;SDS011;54079;44.540;18.784;2024-03-08T12:33:21;9.43;;;8.50;;
55776;SDS011;54079;44.540;18.784;2024-03-08T12:35:51;11.10;;;9.95;;
55776;SDS011;54079;44.540;18.784;2024-03-08T12:38:23;17.20;;;13.77;;
55776;SDS011;54079;44.540;18.784;2024-03-08T12:40:57;21.75;;;17.75;;
55776;SDS011;54079;44.540;18.784;2024-03-08T12:43:24;18.52;;;16.10;;
55776;SDS011;54079;44.540;18.784;2024-03-08T12:45:50;30.90;;;20.33;;
55776;SDS011;54079;44.540;18.784;2024-03-08T12:48:17;14.05;;;12.65;;
55776;SDS011;54079;44.540;18.784;2024-03-08T12:50:46;10.55;;;9.20;;
55776;SDS011;54079;44.540;18.784;2024-03-08T12:53:13;23.48;;;18.60;;
55776;SDS011;54079;44.540;18.784;2024-03-08T12:55:39;23.95;;;19.42;;
55776;SDS011;54079;44.540;18.784;2024-03-08T12:58:06;11.60;;;10.13;;
55776;SDS011;54079;44.540;18.784;2024-03-08T13:00:34;27.00;;;21.90;;
55776;SDS011;54079;44.540;18.784;2024-03-08T13:03:02;12.52;;;11.23;;
55776;SDS011;54079;44.540;18.784;2024-03-08T13:05:28;9.88;;;8.43;;
55776;SDS011;54079;44.540;18.784;2024-03-08T13:07:55;20.73;;;17.48;;
55776;SDS011;54079;44.540;18.784;2024-03-08T13:10:22;10.20;;;9.20;;
55776;SDS011;54079;44.540;18.784;2024-03-08T13:12:48;23.80;;;19.27;;
55776;SDS011;54079;44.540;18.784;2024-03-08T13:15:15;14.23;;;12.70;;
55776;SDS011;54079;44.540;18.784;2024-03-08T13:17:45;14.60;;;11.50;;
55776;SDS011;54079;44.540;18.784;2024-03-08T13:20:13;10.77;;;8.40;;
55776;SDS011;54079;44.540;18.784;2024-03-08T13:22:42;16.38;;;13.93;;
55776;SDS011;54079;44.540;18.784;2024-03-08T13:25:09;19.05;;;17.00;;
55776;SDS011;54079;44.540;18.784;2024-03-08T13:27:41;19.13;;;16.48;;
55776;SDS011;54079;44.540;18.784;2024-03-08T13:30:11;18.52;;;14.70;;
55776;SDS011;54079;44.540;18.784;2024-03-08T13:32:41;10.13;;;9.07;;
55776;SDS011;54079;44.540;18.784;2024-03-08T13:35:11;18.63;;;14.57;;
55776;SDS011;54079;44.540;18.784;2024-03-08T13:37:40;18.88;;;14.82;;
55776;SDS011;54079;44.540;18.784;2024-03-08T13:40:07;11.15;;;9.77;;
55776;SDS011;54079;44.540;18.784;2024-03-08T13:42:39;9.93;;;8.70;;
55776;SDS011;54079;44.540;18.784;2024-03-08T13:45:07;9.88;;;8.88;;
55776;SDS011;54079;44.540;18.784;2024-03-08T13:47:36;18.45;;;15.48;;
55776;SDS011;54079;44.540;18.784;2024-03-08T13:50:05;11.48;;;10.20;;
55776;SDS011;54079;44.540;18.784;2024-03-08T13:52:33;12.63;;;10.93;;
55776;SDS011;54079;44.540;18.784;2024-03-08T13:55:02;14.55;;;12.65;;
55776;SDS011;54079;44.540;18.784;2024-03-08T13:57:28;10.57;;;9.50;;
55776;SDS011;54079;44.540;18.784;2024-03-08T13:59:54;19.00;;;14.82;;
55776;SDS011;54079;44.540;18.784;2024-03-08T14:02:20;17.73;;;14.63;;
55776;SDS011;54079;44.540;18.784;2024-03-08T14:04:47;17.35;;;14.35;;
55776;SDS011;54079;44.540;18.784;2024-03-08T14:07:15;13.52;;;11.52;;
55776;SDS011;54079;44.540;18.784;2024-03-08T14:09:41;10.40;;;9.40;;
55776;SDS011;54079;44.540;18.784;2024-03-08T14:12:08;13.95;;;11.85;;
55776;SDS011;54079;44.540;18.784;2024-03-08T14:14:35;10.70;;;9.07;;
55776;SDS011;54079;44.540;18.784;2024-03-08T14:17:01;18.02;;;14.05;;
55776;SDS011;54079;44.540;18.784;2024-03-08T14:19:29;17.25;;;14.25;;
55776;SDS011;54079;44.540;18.784;2024-03-08T14:21:59;17.35;;;14.80;;
55776;SDS011;54079;44.540;18.784;2024-03-08T14:24:25;20.50;;;15.60;;
55776;SDS011;54079;44.540;18.784;2024-03-08T14:26:51;17.45;;;13.77;;
55776;SDS011;54079;44.540;18.784;2024-03-08T14:29:17;13.13;;;11.25;;
55776;SDS011;54079;44.540;18.784;2024-03-08T14:31:44;18.13;;;15.70;;
55776;SDS011;54079;44.540;18.784;2024-03-08T14:34:10;11.52;;;10.13;;
55776;SDS011;54079;44.540;18.784;2024-03-08T14:36:36;19.50;;;15.30;;
55776;SDS011;54079;44.540;18.784;2024-03-08T14:39:03;10.70;;;9.60;;
55776;SDS011;54079;44.540;18.784;2024-03-08T14:41:29;12.02;;;10.13;;